Time;durP1;ratioP1;P1;durP2;ratioP2;P2;SDS_P1;SDS_P2;PMS_P1;PMS_P2;Temp;Humidity;BMP_temperature;BMP_pressure;BME280_temperature;BME280_humidity;BME280_pressure;Samples;Min_cycle;Max_cycle;Signal;HPM_P1;HPM_P2
2021/08/04 00:00:51;;;;;;;21.20;19.70;;;;;;;;;;5014576;28;20449;-70
2021/08/04 00:03:18;;;;;;;20.70;19.50;;;;;;;;;;5010621;28;20450;-70
2021/08/04 00:05:46;;;;;;;21.03;19.73;;;;;;;;;;4998115;28;20458;-70
2021/08/04 00:08:14;;;;;;;21.27;19.97;;;;;;;;;;5014375;28;20980;-70
2021/08/04 00:10:41;;;;;;;20.53;19.50;;;;;;;;;;5014115;28;20827;-70
2021/08/04 00:13:08;;;;;;;20.40;19.30;;;;;;;;;;5014368;28;20452;-70
2021/08/04 00:15:36;;;;;;;19.40;18.40;;;;;;;;;;5014460;28;20449;-70
2021/08/04 00:18:03;;;;;;;21.50;20.23;;;;;;;;;;5014299;28;20465;-70
2021/08/04 00:20:30;;;;;;;21.30;20.10;;;;;;;;;;5014751;28;20464;-71
2021/08/04 00:22:57;;;;;;;20.43;19.43;;;;;;;;;;5013732;28;20460;-70
2021/08/04 00:25:26;;;;;;;20.30;19.37;;;;;;;;;;5001612;28;20511;-70
2021/08/04 00:27:53;;;;;;;20.10;19.00;;;;;;;;;;5013860;28;20808;-70
2021/08/04 00:30:20;;;;;;;20.90;19.70;;;;;;;;;;5013912;28;20446;-69
2021/08/04 00:32:47;;;;;;;19.80;18.80;;;;;;;;;;5012640;28;20867;-70
2021/08/04 00:35:14;;;;;;;19.97;18.87;;;;;;;;;;5013749;28;20462;-70
2021/08/04 00:37:41;;;;;;;21.03;20.13;;;;;;;;;;5013630;28;20568;-71
2021/08/04 00:40:09;;;;;;;20.90;19.97;;;;;;;;;;5014832;28;20446;-70
2021/08/04 00:42:37;;;;;;;21.20;20.00;;;;;;;;;;5014454;28;20449;-70
2021/08/04 00:45:05;;;;;;;20.60;19.60;;;;;;;;;;4995548;28;20461;-70
2021/08/04 00:47:32;;;;;;;20.30;19.40;;;;;;;;;;5013523;28;20843;-70
2021/08/04 00:49:59;;;;;;;19.37;18.40;;;;;;;;;;5012201;28;20453;-70
2021/08/04 00:52:26;;;;;;;20.13;19.03;;;;;;;;;;5012956;28;20481;-70
2021/08/04 00:54:53;;;;;;;19.87;18.87;;;;;;;;;;5012530;28;20449;-70
2021/08/04 00:57:20;;;;;;;19.73;18.77;;;;;;;;;;5013215;28;20477;-70
2021/08/04 00:59:49;;;;;;;19.67;18.80;;;;;;;;;;5013089;28;20450;-70
2021/08/04 01:02:17;;;;;;;20.50;19.40;;;;;;;;;;5012873;28;20445;-70
2021/08/04 01:04:47;;;;;;;19.50;18.60;;;;;;;;;;5014110;28;20454;-71
2021/08/04 01:07:18;;;;;;;19.87;18.93;;;;;;;;;;5013249;28;20479;-71
2021/08/04 01:09:47;;;;;;;19.20;18.30;;;;;;;;;;5013373;28;20790;-71
2021/08/04 01:12:17;;;;;;;20.63;19.43;;;;;;;;;;5013724;28;20490;-70
2021/08/04 01:14:44;;;;;;;19.40;18.50;;;;;;;;;;4997917;28;20446;-70
2021/08/04 01:17:13;;;;;;;19.93;19.03;;;;;;;;;;4993725;28;20474;-70
2021/08/04 01:19:47;;;;;;;19.80;18.90;;;;;;;;;;5002266;28;20977;-70
2021/08/04 01:22:19;;;;;;;19.90;19.00;;;;;;;;;;5011670;28;20456;-70
2021/08/04 01:24:48;;;;;;;21.67;20.37;;;;;;;;;;5012061;28;20458;-70
2021/08/04 01:27:17;;;;;;;20.33;19.23;;;;;;;;;;5013264;28;20480;-71
2021/08/04 01:29:44;;;;;;;20.40;19.40;;;;;;;;;;5013226;28;20813;-70
2021/08/04 01:32:12;;;;;;;20.00;19.20;;;;;;;;;;5013016;28;20508;-70
2021/08/04 01:34:40;;;;;;;20.07;18.87;;;;;;;;;;5013088;28;20979;-70
2021/08/04 01:37:08;;;;;;;20.87;19.70;;;;;;;;;;5013211;28;20862;-70
2021/08/04 01:39:35;;;;;;;19.90;19.00;;;;;;;;;;5030603;22;20747;-64
2021/08/04 01:42:03;;;;;;;20.53;19.53;;;;;;;;;;5010489;28;20456;-64
2021/08/04 01:44:33;;;;;;;20.70;19.60;;;;;;;;;;5004575;28;20450;-64
2021/08/04 01:47:01;;;;;;;20.17;19.27;;;;;;;;;;5027947;28;20823;-65
2021/08/04 01:49:29;;;;;;;19.93;19.03;;;;;;;;;;5015486;28;20833;-64
2021/08/04 01:51:57;;;;;;;20.80;19.90;;;;;;;;;;4996350;28;20478;-64
2021/08/04 01:54:24;;;;;;;20.27;19.30;;;;;;;;;;5008195;28;20999;-65
2021/08/04 01:56:52;;;;;;;19.63;18.63;;;;;;;;;;5011372;28;20449;-64
2021/08/04 01:59:20;;;;;;;20.33;19.37;;;;;;;;;;5011118;28;20849;-65
2021/08/04 02:01:48;;;;;;;20.00;19.10;;;;;;;;;;5010366;28;20521;-64
2021/08/04 02:04:15;;;;;;;20.00;19.10;;;;;;;;;;5011983;28;20821;-64
2021/08/04 02:06:45;;;;;;;20.27;19.37;;;;;;;;;;5010053;28;20449;-63
2021/08/04 02:09:15;;;;;;;20.40;19.40;;;;;;;;;;5011667;28;20478;-63
2021/08/04 02:11:50;;;;;;;20.70;19.53;;;;;;;;;;5010750;28;20485;-65
2021/08/04 02:14:19;;;;;;;20.17;19.00;;;;;;;;;;5011751;28;20456;-64
2021/08/04 02:16:49;;;;;;;20.97;19.87;;;;;;;;;;5011204;28;20481;-63
2021/08/04 02:19:19;;;;;;;22.47;20.77;;;;;;;;;;5011172;28;20499;-65
2021/08/04 02:21:58;;;;;;;21.83;20.40;;;;;;;;;;5007406;28;20453;-65
2021/08/04 02:24:26;;;;;;;21.53;20.10;;;;;;;;;;5011406;28;20434;-66
2021/08/04 02:26:54;;;;;;;21.40;20.40;;;;;;;;;;5010387;28;20458;-64
2021/08/04 02:29:23;;;;;;;20.90;19.80;;;;;;;;;;5011467;28;20992;-65
2021/08/04 02:31:51;;;;;;;21.60;20.40;;;;;;;;;;5013869;28;20492;-65
2021/08/04 02:34:19;;;;;;;22.97;21.30;;;;;;;;;;5015398;28;20453;-65
2021/08/04 02:36:47;;;;;;;21.50;20.17;;;;;;;;;;5014803;28;20465;-65
2021/08/04 02:39:14;;;;;;;22.10;20.90;;;;;;;;;;4998008;28;20486;-65
2021/08/04 02:41:41;;;;;;;21.40;20.00;;;;;;;;;;5009263;28;20454;-63
2021/08/04 02:44:09;;;;;;;21.63;20.53;;;;;;;;;;5015263;28;20454;-64
2021/08/04 02:46:36;;;;;;;21.40;19.90;;;;;;;;;;5013900;28;20454;-64
2021/08/04 02:49:05;;;;;;;20.80;19.60;;;;;;;;;;5014155;28;20563;-64
2021/08/04 02:51:32;;;;;;;21.03;19.83;;;;;;;;;;5014818;28;20455;-64
2021/08/04 02:54:00;;;;;;;21.33;19.97;;;;;;;;;;5014345;28;20453;-64
2021/08/04 02:56:28;;;;;;;21.00;19.97;;;;;;;;;;4996980;28;20577;-64
2021/08/04 02:58:55;;;;;;;20.70;19.70;;;;;;;;;;4996307;28;20501;-64
2021/08/04 03:01:22;;;;;;;20.00;19.10;;;;;;;;;;5014765;28;20450;-64
2021/08/04 03:03:49;;;;;;;21.33;20.33;;;;;;;;;;5014518;28;20854;-65
2021/08/04 03:06:18;;;;;;;20.53;19.30;;;;;;;;;;5014912;28;20453;-65
2021/08/04 03:08:45;;;;;;;20.33;19.40;;;;;;;;;;5014015;28;20464;-64
2021/08/04 03:11:12;;;;;;;20.70;19.60;;;;;;;;;;5014454;28;20461;-64
2021/08/04 03:13:39;;;;;;;21.10;20.10;;;;;;;;;;5013742;28;20485;-65
2021/08/04 03:16:06;;;;;;;20.30;19.40;;;;;;;;;;5014870;28;20456;-65
2021/08/04 03:18:34;;;;;;;21.37;20.40;;;;;;;;;;5014049;28;20456;-64
2021/08/04 03:21:01;;;;;;;20.40;19.33;;;;;;;;;;5014168;28;20457;-64
2021/08/04 03:23:29;;;;;;;20.90;19.83;;;;;;;;;;5013779;28;20450;-65
2021/08/04 03:25:56;;;;;;;20.63;19.43;;;;;;;;;;5003958;28;21109;-64
2021/08/04 03:28:23;;;;;;;20.37;19.30;;;;;;;;;;4997785;28;20960;-64
2021/08/04 03:30:51;;;;;;;20.83;19.83;;;;;;;;;;5013057;28;20470;-64
2021/08/04 03:33:18;;;;;;;20.63;19.70;;;;;;;;;;5013395;28;20485;-65
2021/08/04 03:35:45;;;;;;;21.20;19.97;;;;;;;;;;5013931;28;21020;-64
2021/08/04 03:38:12;;;;;;;20.37;19.37;;;;;;;;;;5014020;28;20453;-64
2021/08/04 03:40:40;;;;;;;20.53;19.53;;;;;;;;;;5013173;28;21022;-64
2021/08/04 03:43:07;;;;;;;20.53;19.43;;;;;;;;;;5013888;28;20452;-64
2021/08/04 03:45:35;;;;;;;21.20;19.80;;;;;;;;;;5012605;28;20830;-64
2021/08/04 03:48:02;;;;;;;20.67;19.77;;;;;;;;;;5001123;28;20457;-64
2021/08/04 03:50:29;;;;;;;21.13;19.93;;;;;;;;;;5011922;28;20496;-64
2021/08/04 03:52:56;;;;;;;21.20;19.63;;;;;;;;;;5013558;28;20489;-64
2021/08/04 03:55:23;;;;;;;20.93;19.93;;;;;;;;;;5013841;28;20848;-63
2021/08/04 03:57:52;;;;;;;21.33;20.17;;;;;;;;;;5013865;28;20452;-64
2021/08/04 04:00:19;;;;;;;21.33;19.93;;;;;;;;;;5013169;28;20827;-65
2021/08/04 04:02:46;;;;;;;20.90;19.60;;;;;;;;;;5013548;28;20454;-64
2021/08/04 04:05:13;;;;;;;21.43;20.13;;;;;;;;;;5002985;28;20465;-64
2021/08/04 04:07:40;;;;;;;21.73;20.53;;;;;;;;;;4994044;28;20454;-64
2021/08/04 04:10:07;;;;;;;21.90;20.70;;;;;;;;;;5006683;28;20560;-64
2021/08/04 04:12:35;;;;;;;22.27;21.00;;;;;;;;;;5013352;28;20493;-64
2021/08/04 04:15:04;;;;;;;21.70;20.70;;;;;;;;;;5012487;28;21014;-64
2021/08/04 04:17:31;;;;;;;22.00;20.80;;;;;;;;;;5013373;28;20462;-64
2021/08/04 04:19:58;;;;;;;21.10;20.10;;;;;;;;;;5012146;28;20499;-64
2021/08/04 04:22:25;;;;;;;21.87;20.67;;;;;;;;;;5010124;28;20453;-64
2021/08/04 04:24:53;;;;;;;21.23;20.23;;;;;;;;;;5016401;28;20822;-64
2021/08/04 04:27:20;;;;;;;21.80;20.70;;;;;;;;;;4993351;28;20451;-64
2021/08/04 04:29:47;;;;;;;21.50;20.40;;;;;;;;;;5005706;28;21000;-65
2021/08/04 04:32:15;;;;;;;21.83;20.40;;;;;;;;;;5012773;28;20449;-64
2021/08/04 04:34:42;;;;;;;20.97;19.87;;;;;;;;;;5012673;28;20815;-64
2021/08/04 04:37:09;;;;;;;21.20;20.10;;;;;;;;;;5013219;28;20453;-65
2021/08/04 04:39:36;;;;;;;21.80;20.60;;;;;;;;;;5010043;28;20492;-65
2021/08/04 04:42:04;;;;;;;21.30;20.13;;;;;;;;;;5012788;28;20449;-65
2021/08/04 04:44:31;;;;;;;21.00;19.70;;;;;;;;;;5012817;28;20460;-64
2021/08/04 04:46:58;;;;;;;21.40;20.10;;;;;;;;;;5010531;28;20480;-65
2021/08/04 04:49:26;;;;;;;20.50;19.50;;;;;;;;;;5011801;28;20478;-64
2021/08/04 04:51:53;;;;;;;21.70;20.50;;;;;;;;;;5012428;28;20945;-65
2021/08/04 04:54:20;;;;;;;21.50;20.40;;;;;;;;;;5012457;28;20485;-64
2021/08/04 04:56:48;;;;;;;21.90;20.37;;;;;;;;;;5011745;28;20468;-64
2021/08/04 04:59:15;;;;;;;21.67;20.43;;;;;;;;;;5012275;28;20988;-64
2021/08/04 05:01:42;;;;;;;21.20;20.10;;;;;;;;;;5012247;28;20450;-65
2021/08/04 05:04:09;;;;;;;20.60;19.40;;;;;;;;;;5012496;28;20446;-65
2021/08/04 05:06:37;;;;;;;21.07;19.97;;;;;;;;;;5012573;28;20552;-64
2021/08/04 05:09:04;;;;;;;21.90;20.60;;;;;;;;;;5011991;28;20480;-64
2021/08/04 05:11:32;;;;;;;23.00;21.47;;;;;;;;;;4992380;28;20465;-65
2021/08/04 05:13:59;;;;;;;31.03;21.30;;;;;;;;;;5000033;28;20869;-64
2021/08/04 05:16:26;;;;;;;31.10;29.30;;;;;;;;;;5012684;28;20456;-64
2021/08/04 05:18:53;;;;;;;21.23;20.00;;;;;;;;;;5011721;28;20465;-64
2021/08/04 05:21:21;;;;;;;21.53;20.33;;;;;;;;;;5012263;28;20446;-64
2021/08/04 05:23:49;;;;;;;21.30;20.20;;;;;;;;;;5011578;28;20816;-64
2021/08/04 05:26:16;;;;;;;21.50;20.30;;;;;;;;;;4999527;28;20465;-64
2021/08/04 05:28:43;;;;;;;21.80;20.43;;;;;;;;;;4994979;28;20450;-64
2021/08/04 05:31:11;;;;;;;21.97;20.67;;;;;;;;;;5011994;28;20476;-64
2021/08/04 05:33:38;;;;;;;22.57;20.87;;;;;;;;;;5009617;28;20486;-64
2021/08/04 05:36:05;;;;;;;22.57;20.83;;;;;;;;;;4992363;28;20464;-66
2021/08/04 05:38:32;;;;;;;21.60;20.27;;;;;;;;;;4992861;28;20968;-66
2021/08/04 05:41:01;;;;;;;20.80;19.70;;;;;;;;;;5011231;28;20446;-63
2021/08/04 05:43:28;;;;;;;21.00;19.90;;;;;;;;;;5011470;28;20452;-64
2021/08/04 05:45:55;;;;;;;22.43;21.23;;;;;;;;;;4999629;28;20447;-65
2021/08/04 05:48:22;;;;;;;22.70;21.40;;;;;;;;;;5011682;28;20453;-65
2021/08/04 05:50:49;;;;;;;23.40;22.20;;;;;;;;;;5011190;28;20850;-64
2021/08/04 05:53:16;;;;;;;22.77;21.50;;;;;;;;;;5011617;28;20488;-65
2021/08/04 05:55:43;;;;;;;23.33;22.13;;;;;;;;;;5009807;28;20458;-65
2021/08/04 05:58:12;;;;;;;22.57;21.47;;;;;;;;;;4995188;28;20447;-65
2021/08/04 06:00:39;;;;;;;21.23;20.23;;;;;;;;;;4992371;28;20477;-64
2021/08/04 06:03:06;;;;;;;23.87;22.57;;;;;;;;;;5006794;28;20454;-64
2021/08/04 06:05:33;;;;;;;20.23;19.03;;;;;;;;;;5016139;28;20475;-64
2021/08/04 06:08:00;;;;;;;20.53;19.43;;;;;;;;;;5015441;28;20454;-64
2021/08/04 06:10:27;;;;;;;20.57;19.57;;;;;;;;;;5015275;28;20849;-64
2021/08/04 06:12:54;;;;;;;20.17;19.07;;;;;;;;;;5014625;28;20457;-63
2021/08/04 06:15:23;;;;;;;19.30;18.40;;;;;;;;;;5002484;28;20462;-65
2021/08/04 06:17:50;;;;;;;19.90;18.80;;;;;;;;;;5001797;28;20474;-64
2021/08/04 06:20:17;;;;;;;19.53;18.37;;;;;;;;;;5015564;28;20469;-64
2021/08/04 06:22:44;;;;;;;19.17;18.10;;;;;;;;;;5015406;28;20460;-65
2021/08/04 06:25:11;;;;;;;19.50;18.50;;;;;;;;;;5015274;28;20460;-64
2021/08/04 06:27:39;;;;;;;19.47;18.47;;;;;;;;;;5013171;28;20472;-64
2021/08/04 06:30:07;;;;;;;19.50;18.50;;;;;;;;;;5015135;28;20480;-64
2021/08/04 06:32:35;;;;;;;20.53;19.50;;;;;;;;;;5015711;28;20454;-65
2021/08/04 06:35:02;;;;;;;19.67;18.67;;;;;;;;;;5014578;28;20488;-65
2021/08/04 06:37:29;;;;;;;19.90;18.90;;;;;;;;;;5014884;28;20458;-64
2021/08/04 06:39:56;;;;;;;18.80;17.90;;;;;;;;;;5014542;28;20485;-64
2021/08/04 06:42:24;;;;;;;18.60;17.80;;;;;;;;;;5014218;28;21000;-64
2021/08/04 06:44:51;;;;;;;19.13;18.23;;;;;;;;;;5013035;28;20465;-63
2021/08/04 06:47:18;;;;;;;19.50;18.50;;;;;;;;;;5014244;28;20454;-64
2021/08/04 06:49:46;;;;;;;20.30;19.30;;;;;;;;;;5006972;28;20855;-66
2021/08/04 06:52:13;;;;;;;23.30;22.17;;;;;;;;;;5003008;28;20462;-66
2021/08/04 06:54:40;;;;;;;23.77;22.60;;;;;;;;;;5012204;28;20496;-64
2021/08/04 06:57:07;;;;;;;21.63;20.30;;;;;;;;;;5007495;28;20945;-65
2021/08/04 06:59:35;;;;;;;19.83;18.80;;;;;;;;;;5013767;28;20481;-63
2021/08/04 07:02:02;;;;;;;19.90;18.70;;;;;;;;;;4995294;28;20946;-64
2021/08/04 07:04:29;;;;;;;18.97;18.07;;;;;;;;;;5011166;28;21003;-65
2021/08/04 07:06:58;;;;;;;20.10;19.20;;;;;;;;;;5014921;28;20457;-65
2021/08/04 07:09:25;;;;;;;19.30;18.20;;;;;;;;;;5014644;28;20473;-64
2021/08/04 07:11:52;;;;;;;20.43;19.33;;;;;;;;;;5013133;28;20830;-64
2021/08/04 07:14:19;;;;;;;19.17;18.13;;;;;;;;;;5013489;28;20481;-64
2021/08/04 07:16:47;;;;;;;20.10;19.20;;;;;;;;;;5013499;28;20463;-65
2021/08/04 07:19:14;;;;;;;19.50;18.60;;;;;;;;;;5008344;28;20476;-64
2021/08/04 07:21:41;;;;;;;19.50;18.30;;;;;;;;;;5014543;28;20454;-65
2021/08/04 07:24:10;;;;;;;20.63;19.23;;;;;;;;;;5014278;28;20453;-64
2021/08/04 07:26:38;;;;;;;29.43;26.03;;;;;;;;;;5013899;28;20460;-65
2021/08/04 07:29:06;;;;;;;25.80;23.40;;;;;;;;;;5014444;28;20465;-64
2021/08/04 07:31:34;;;;;;;24.93;23.07;;;;;;;;;;5013592;28;20464;-67
2021/08/04 07:34:01;;;;;;;23.50;21.83;;;;;;;;;;5013843;28;20988;-66
2021/08/04 07:36:28;;;;;;;24.33;22.73;;;;;;;;;;5014382;28;20450;-65
2021/08/04 07:38:55;;;;;;;26.00;23.67;;;;;;;;;;5012770;28;20485;-66
2021/08/04 07:41:24;;;;;;;24.40;22.80;;;;;;;;;;5048596;22;20499;-69
2021/08/04 07:43:51;;;;;;;24.30;22.73;;;;;;;;;;5012534;28;20451;-69
2021/08/04 07:46:18;;;;;;;23.37;21.97;;;;;;;;;;5015137;28;20460;-69
2021/08/04 07:48:45;;;;;;;23.47;22.03;;;;;;;;;;5015293;28;20573;-69
2021/08/04 07:51:12;;;;;;;23.80;22.20;;;;;;;;;;5014596;28;20465;-69
2021/08/04 07:53:40;;;;;;;23.80;22.47;;;;;;;;;;5014599;28;20481;-68
2021/08/04 07:56:07;;;;;;;22.67;21.13;;;;;;;;;;5014582;28;20520;-69
2021/08/04 07:58:36;;;;;;;23.67;21.97;;;;;;;;;;5014145;28;20453;-69
2021/08/04 08:01:03;;;;;;;22.37;20.97;;;;;;;;;;5012278;28;20480;-69
2021/08/04 08:03:30;;;;;;;22.47;21.30;;;;;;;;;;4996230;28;20454;-69
2021/08/04 08:05:57;;;;;;;23.27;22.00;;;;;;;;;;5014372;28;20445;-69
2021/08/04 08:08:24;;;;;;;25.23;23.63;;;;;;;;;;5014292;28;20471;-69
2021/08/04 08:10:53;;;;;;;23.20;21.80;;;;;;;;;;5013964;28;20469;-69
2021/08/04 08:13:20;;;;;;;23.17;21.97;;;;;;;;;;5013370;28;20564;-69
2021/08/04 08:15:49;;;;;;;23.57;22.17;;;;;;;;;;5014026;28;20796;-69
2021/08/04 08:18:16;;;;;;;22.80;21.60;;;;;;;;;;5013848;28;20445;-68
2021/08/04 08:20:43;;;;;;;23.20;21.80;;;;;;;;;;5003185;28;21013;-69
2021/08/04 08:23:11;;;;;;;22.57;21.37;;;;;;;;;;4993997;28;20450;-69
2021/08/04 08:25:39;;;;;;;22.87;21.67;;;;;;;;;;4994257;28;20454;-68
2021/08/04 08:28:06;;;;;;;21.83;20.73;;;;;;;;;;4993224;28;20792;-69
2021/08/04 08:30:34;;;;;;;22.00;20.90;;;;;;;;;;4994023;28;20586;-69
2021/08/04 08:33:02;;;;;;;22.63;21.53;;;;;;;;;;4993986;28;20467;-69
2021/08/04 08:35:30;;;;;;;20.63;19.63;;;;;;;;;;4993570;28;20497;-70
2021/08/04 08:37:58;;;;;;;21.70;20.60;;;;;;;;;;4994155;28;20459;-69
2021/08/04 08:40:25;;;;;;;21.60;20.60;;;;;;;;;;4997693;28;20489;-69
2021/08/04 08:42:53;;;;;;;22.70;21.60;;;;;;;;;;4974698;28;20465;-69
2021/08/04 08:45:20;;;;;;;25.17;23.97;;;;;;;;;;4981395;28;20450;-69
2021/08/04 08:47:48;;;;;;;25.37;24.03;;;;;;;;;;4991715;28;20474;-69
2021/08/04 08:50:18;;;;;;;23.93;22.73;;;;;;;;;;5009556;28;20478;-69
2021/08/04 08:52:48;;;;;;;24.50;23.10;;;;;;;;;;4991877;28;20462;-69
2021/08/04 08:55:15;;;;;;;22.80;21.60;;;;;;;;;;4991737;28;20486;-67
2021/08/04 08:57:43;;;;;;;25.40;24.10;;;;;;;;;;4990708;28;20467;-68
2021/08/04 09:00:11;;;;;;;24.57;23.27;;;;;;;;;;4976896;28;20477;-68
2021/08/04 09:02:38;;;;;;;24.50;23.30;;;;;;;;;;4995396;28;20450;-68
2021/08/04 09:05:06;;;;;;;25.57;24.17;;;;;;;;;;5013958;28;20816;-68
2021/08/04 09:07:35;;;;;;;28.40;25.93;;;;;;;;;;4977983;28;20456;-69
2021/08/04 09:10:03;;;;;;;25.77;24.37;;;;;;;;;;4974569;28;20467;-66
2021/08/04 09:12:30;;;;;;;26.47;24.77;;;;;;;;;;4991614;28;20451;-67
2021/08/04 09:14:57;;;;;;;25.33;23.80;;;;;;;;;;4977097;28;20482;-67
2021/08/04 09:17:24;;;;;;;26.03;24.73;;;;;;;;;;4991893;28;20466;-67
2021/08/04 09:19:52;;;;;;;26.30;24.60;;;;;;;;;;4989866;28;20470;-67
2021/08/04 09:22:22;;;;;;;27.50;26.10;;;;;;;;;;4989323;28;20465;-68
2021/08/04 09:25:06;;;;;;;27.13;25.73;;;;;;;;;;4994049;28;20454;-67
2021/08/04 09:27:44;;;;;;;25.10;23.70;;;;;;;;;;4982326;28;20447;-67
2021/08/04 09:30:12;;;;;;;25.90;24.50;;;;;;;;;;4986538;28;20485;-67
2021/08/04 09:32:40;;;;;;;24.40;23.20;;;;;;;;;;4991625;28;20467;-67
2021/08/04 09:35:09;;;;;;;24.90;23.33;;;;;;;;;;4986034;28;20489;-67
2021/08/04 09:37:36;;;;;;;24.97;23.67;;;;;;;;;;4978763;28;20501;-67
2021/08/04 09:40:05;;;;;;;25.40;24.00;;;;;;;;;;4983220;28;20482;-67
2021/08/04 09:42:46;;;;;;;25.40;24.10;;;;;;;;;;4986687;28;20469;-66
2021/08/04 09:45:15;;;;;;;22.30;21.10;;;;;;;;;;4988074;28;20530;-68
2021/08/04 09:48:03;;;;;;;24.60;23.23;;;;;;;;;;4985574;28;20465;-68
2021/08/04 09:50:47;;;;;;;23.47;22.20;;;;;;;;;;4982493;28;20513;-68
2021/08/04 09:53:19;;;;;;;23.40;21.90;;;;;;;;;;4989657;28;20841;-68
2021/08/04 09:56:01;;;;;;;23.27;22.07;;;;;;;;;;4986780;28;20827;-69
2021/08/04 09:58:29;;;;;;;23.77;22.57;;;;;;;;;;4977522;28;20457;-68
2021/08/04 10:00:56;;;;;;;23.50;22.20;;;;;;;;;;4986809;28;20502;-69
2021/08/04 10:03:23;;;;;;;23.13;22.03;;;;;;;;;;5004131;28;20465;-68
2021/08/04 10:05:50;;;;;;;23.30;22.10;;;;;;;;;;5013686;28;20452;-68
2021/08/04 10:08:18;;;;;;;23.37;22.17;;;;;;;;;;4999670;28;20450;-69
2021/08/04 10:10:46;;;;;;;24.23;23.00;;;;;;;;;;4993517;28;20850;-68
2021/08/04 10:13:14;;;;;;;21.40;20.30;;;;;;;;;;4995280;28;20958;-66
2021/08/04 10:15:44;;;;;;;21.60;20.40;;;;;;;;;;4993710;28;20482;-67
2021/08/04 10:18:12;;;;;;;22.00;20.90;;;;;;;;;;4987957;28;20543;-67
2021/08/04 10:20:40;;;;;;;21.80;20.70;;;;;;;;;;4973880;28;21044;-67
2021/08/04 10:23:08;;;;;;;21.50;20.40;;;;;;;;;;4977627;28;20450;-67
2021/08/04 10:25:35;;;;;;;21.50;20.50;;;;;;;;;;4993320;28;20455;-67
2021/08/04 10:28:03;;;;;;;22.50;21.40;;;;;;;;;;4992305;28;20816;-67
2021/08/04 10:30:31;;;;;;;20.70;19.70;;;;;;;;;;4979923;28;20485;-67
2021/08/04 10:32:59;;;;;;;22.00;20.90;;;;;;;;;;4973477;28;20463;-67
2021/08/04 10:35:27;;;;;;;20.80;19.50;;;;;;;;;;4973974;28;20495;-68
2021/08/04 10:37:54;;;;;;;20.60;19.53;;;;;;;;;;4973692;28;20538;-67
2021/08/04 10:40:25;;;;;;;21.37;20.27;;;;;;;;;;4974583;28;20479;-67
2021/08/04 10:42:52;;;;;;;20.80;19.80;;;;;;;;;;4973826;28;20451;-67
2021/08/04 10:45:36;;;;;;;20.70;19.60;;;;;;;;;;4976066;28;20447;-67
2021/08/04 10:48:23;;;;;;;20.60;19.50;;;;;;;;;;4980389;28;20501;-67
2021/08/04 10:51:09;;;;;;;20.33;19.33;;;;;;;;;;4994093;28;20469;-71
2021/08/04 10:53:36;;;;;;;21.90;20.70;;;;;;;;;;4995923;28;20456;-70
2021/08/04 10:56:03;;;;;;;21.00;19.90;;;;;;;;;;4993703;28;20493;-69
2021/08/04 10:58:30;;;;;;;21.77;20.53;;;;;;;;;;4989821;28;20957;-70
2021/08/04 11:01:18;;;;;;;22.40;21.20;;;;;;;;;;4995837;28;20480;-69
2021/08/04 11:03:49;;;;;;;20.80;19.60;;;;;;;;;;4986075;28;20969;-69
2021/08/04 11:06:16;;;;;;;21.37;20.30;;;;;;;;;;4976838;28;20436;-69
2021/08/04 11:08:47;;;;;;;20.30;19.20;;;;;;;;;;4993305;28;20468;-69
2021/08/04 11:11:33;;;;;;;20.90;19.70;;;;;;;;;;4997019;28;20470;-69
2021/08/04 11:14:00;;;;;;;20.77;19.77;;;;;;;;;;4996212;28;20457;-70
2021/08/04 11:16:29;;;;;;;21.07;19.97;;;;;;;;;;4996455;28;20850;-69
2021/08/04 11:19:05;;;;;;;20.77;19.67;;;;;;;;;;4989135;28;20451;-70
2021/08/04 11:21:32;;;;;;;20.20;19.27;;;;;;;;;;4978719;28;20475;-71
2021/08/04 11:24:00;;;;;;;22.70;21.50;;;;;;;;;;4985388;28;20451;-71
2021/08/04 11:26:29;;;;;;;23.20;22.00;;;;;;;;;;4982858;28;20864;-72
2021/08/04 11:28:57;;;;;;;22.70;21.50;;;;;;;;;;4994651;28;20449;-70
2021/08/04 11:31:26;;;;;;;23.97;22.77;;;;;;;;;;4993279;28;20544;-70
2021/08/04 11:33:53;;;;;;;22.63;21.50;;;;;;;;;;4990229;28;20458;-71
2021/08/04 11:36:27;;;;;;;23.63;22.33;;;;;;;;;;4995146;28;20541;-71
2021/08/04 11:39:02;;;;;;;23.20;22.00;;;;;;;;;;4994713;28;20957;-71
2021/08/04 11:41:34;;;;;;;22.70;21.60;;;;;;;;;;4994443;28;20536;-71
2021/08/04 11:44:10;;;;;;;22.77;21.67;;;;;;;;;;4994057;28;20455;-71
2021/08/04 11:46:38;;;;;;;23.20;22.00;;;;;;;;;;4996114;28;20450;-71
2021/08/04 11:49:07;;;;;;;23.73;22.43;;;;;;;;;;4986649;28;20459;-71
2021/08/04 11:51:39;;;;;;;22.60;21.50;;;;;;;;;;4974857;28;20475;-70
2021/08/04 11:54:07;;;;;;;24.50;23.20;;;;;;;;;;4974946;28;20791;-74
2021/08/04 11:56:34;;;;;;;24.50;23.30;;;;;;;;;;4975948;28;20484;-71
2021/08/04 11:59:02;;;;;;;21.00;20.00;;;;;;;;;;4990502;28;20541;-70
2021/08/04 12:01:29;;;;;;;22.73;21.50;;;;;;;;;;4993447;28;20474;-71
2021/08/04 12:04:04;;;;;;;22.60;21.50;;;;;;;;;;4993996;28;20460;-71
2021/08/04 12:06:33;;;;;;;22.80;21.60;;;;;;;;;;4994871;28;20457;-72
2021/08/04 12:09:15;;;;;;;22.90;21.70;;;;;;;;;;4994423;28;20462;-72
2021/08/04 12:11:44;;;;;;;22.70;21.60;;;;;;;;;;4991390;28;20470;-72
2021/08/04 12:14:11;;;;;;;22.17;20.77;;;;;;;;;;4990717;28;20457;-72
2021/08/04 12:16:42;;;;;;;21.37;20.37;;;;;;;;;;4993784;28;20489;-72
2021/08/04 12:19:09;;;;;;;23.30;22.00;;;;;;;;;;4993836;28;20434;-72
2021/08/04 12:21:37;;;;;;;19.87;18.90;;;;;;;;;;4993508;28;20478;-71
2021/08/04 12:24:05;;;;;;;20.37;19.37;;;;;;;;;;4993229;28;20451;-71
2021/08/04 12:26:44;;;;;;;20.47;19.47;;;;;;;;;;4990928;28;20490;-71
2021/08/04 12:29:18;;;;;;;19.50;18.43;;;;;;;;;;4985686;28;20474;-71
2021/08/04 12:32:00;;;;;;;20.23;19.33;;;;;;;;;;4986263;28;20824;-71
2021/08/04 12:34:28;;;;;;;19.80;18.90;;;;;;;;;;4986094;28;20447;-71
2021/08/04 12:36:55;;;;;;;19.77;18.77;;;;;;;;;;4974183;28;20487;-71
2021/08/04 12:39:22;;;;;;;19.10;18.20;;;;;;;;;;4973854;28;20452;-71
2021/08/04 12:41:51;;;;;;;18.70;17.80;;;;;;;;;;4975560;28;20478;-71
2021/08/04 12:44:18;;;;;;;18.93;18.13;;;;;;;;;;4993451;28;20469;-71
2021/08/04 12:46:46;;;;;;;18.90;18.00;;;;;;;;;;4988993;28;20443;-73
2021/08/04 12:49:17;;;;;;;18.53;17.73;;;;;;;;;;4976621;28;20827;-72
2021/08/04 12:51:54;;;;;;;18.90;18.00;;;;;;;;;;4988529;28;21065;-73
2021/08/04 12:54:28;;;;;;;18.77;17.70;;;;;;;;;;4973814;28;20435;-70
2021/08/04 12:56:56;;;;;;;18.50;17.63;;;;;;;;;;4988902;28;21005;-64
2021/08/04 12:59:24;;;;;;;18.40;17.50;;;;;;;;;;4973546;28;20451;-64
2021/08/04 13:02:07;;;;;;;18.90;17.87;;;;;;;;;;4975694;28;20480;-64
2021/08/04 13:04:34;;;;;;;18.53;17.63;;;;;;;;;;4993080;28;20748;-64
2021/08/04 13:07:02;;;;;;;18.00;17.20;;;;;;;;;;4988768;28;20455;-65
2021/08/04 13:09:30;;;;;;;18.07;17.27;;;;;;;;;;4973281;28;20941;-65
2021/08/04 13:15:00;;;;;;;18.27;17.37;;;;;;;;;;5088995;27;21058;-62
2021/08/04 13:17:28;;;;;;;17.83;16.93;;;;;;;;;;5087459;28;20449;-63
2021/08/04 13:20:06;;;;;;;17.30;16.53;;;;;;;;;;5088939;28;20472;-63
2021/08/04 13:22:48;;;;;;;18.97;17.77;;;;;;;;;;5078820;28;20446;-63
2021/08/04 13:25:15;;;;;;;17.70;16.90;;;;;;;;;;5068712;28;20431;-66
2021/08/04 13:27:52;;;;;;;17.57;16.77;;;;;;;;;;5067363;28;20817;-66
2021/08/04 13:30:22;;;;;;;18.40;17.60;;;;;;;;;;5067422;28;20819;-65
2021/08/04 13:32:50;;;;;;;18.20;17.30;;;;;;;;;;5068329;28;20493;-65
2021/08/04 13:35:17;;;;;;;18.30;17.50;;;;;;;;;;5068293;28;20930;-64
2021/08/04 13:37:45;;;;;;;18.57;17.67;;;;;;;;;;5067696;28;20482;-65
2021/08/04 13:40:12;;;;;;;17.87;17.07;;;;;;;;;;5068214;28;21006;-65
2021/08/04 13:42:41;;;;;;;18.03;17.20;;;;;;;;;;5068223;28;20454;-65
2021/08/04 13:45:08;;;;;;;19.10;18.10;;;;;;;;;;5068875;28;20459;-65
2021/08/04 13:47:37;;;;;;;17.67;16.80;;;;;;;;;;5067841;28;20453;-65
2021/08/04 13:50:05;;;;;;;18.17;17.27;;;;;;;;;;5067967;28;20467;-64
2021/08/04 13:52:33;;;;;;;18.10;17.30;;;;;;;;;;5067549;28;20457;-65
2021/08/04 13:55:00;;;;;;;18.43;17.53;;;;;;;;;;5068068;28;20445;-67
2021/08/04 13:57:27;;;;;;;18.90;17.90;;;;;;;;;;5068452;28;20439;-64
2021/08/04 13:59:54;;;;;;;19.00;18.10;;;;;;;;;;5069079;28;20479;-66
2021/08/04 14:02:22;;;;;;;21.10;19.90;;;;;;;;;;5070275;28;20447;-64
2021/08/04 14:04:50;;;;;;;28.30;26.47;;;;;;;;;;5081442;28;20438;-64
2021/08/04 14:07:17;;;;;;;39.63;37.33;;;;;;;;;;5087987;28;20505;-65
2021/08/04 14:09:44;;;;;;;64.63;61.33;;;;;;;;;;5082044;28;20454;-64
2021/08/04 14:12:11;;;;;;;96.30;91.40;;;;;;;;;;5087997;28;20438;-65
2021/08/04 14:14:38;;;;;;;100.40;94.80;;;;;;;;;;5075226;28;20495;-64
2021/08/04 14:17:05;;;;;;;126.23;119.83;;;;;;;;;;5082123;28;20458;-64
2021/08/04 14:19:33;;;;;;;149.83;142.43;;;;;;;;;;5067451;28;20491;-65
2021/08/04 14:22:01;;;;;;;144.83;138.00;;;;;;;;;;5068901;28;20454;-63
2021/08/04 14:24:28;;;;;;;159.57;151.90;;;;;;;;;;5066143;28;20452;-66
2021/08/04 14:26:55;;;;;;;160.03;152.13;;;;;;;;;;5059959;28;20815;-66